createdAt,value
2022-08-30T00:00:42.439Z,16.21
2022-08-30T00:03:32.445Z,16.08
2022-08-30T00:06:24.781Z,16.04
2022-08-30T00:09:14.543Z,16.06
2022-08-30T00:12:04.505Z,16.05
2022-08-30T00:14:53.057Z,16.27
2022-08-30T00:17:41.990Z,16.39
2022-08-30T00:20:32.807Z,16.21
2022-08-30T00:23:23.462Z,16.14
2022-08-30T00:26:11.952Z,15.99
2022-08-30T00:29:00.404Z,16.45
2022-08-30T00:31:49.201Z,16.90
2022-08-30T00:34:37.532Z,17.25
2022-08-30T00:37:25.921Z,17.47
2022-08-30T00:40:17.547Z,17.10
2022-08-30T00:43:10.583Z,16.85
2022-08-30T00:46:04.789Z,17.28
2022-08-30T00:48:53.876Z,17.03
2022-08-30T00:51:43.239Z,16.71
2022-08-30T00:54:32.921Z,16.41
2022-08-30T00:57:22.740Z,15.77
2022-08-30T01:00:13.192Z,15.43
2022-08-30T01:03:01.910Z,15.26
2022-08-30T01:05:51.837Z,15.15
2022-08-30T01:08:40.349Z,15.40
2022-08-30T01:11:29.678Z,15.34
2022-08-30T01:14:21.511Z,15.53
2022-08-30T01:17:15.509Z,15.39
2022-08-30T01:20:09.446Z,15.50
2022-08-30T01:23:07.699Z,16.24
2022-08-30T01:25:57.283Z,16.39
2022-08-30T01:28:49.049Z,16.13
2022-08-30T01:31:37.792Z,16.58
2022-08-30T01:34:26.360Z,16.99
2022-08-30T01:37:15.552Z,17.10
2022-08-30T01:40:07.350Z,17.15
2022-08-30T01:42:56.304Z,17.08
2022-08-30T01:45:45.028Z,16.82
2022-08-30T01:48:34.325Z,16.60
2022-08-30T01:51:26.090Z,16.19
2022-08-30T01:54:14.774Z,16.53
2022-08-30T01:57:05.774Z,16.01
2022-08-30T01:59:54.184Z,14.82
2022-08-30T02:02:43.120Z,15.05
2022-08-30T02:05:31.831Z,15.23
2022-08-30T02:08:20.294Z,14.91
2022-08-30T02:11:10.490Z,14.59
2022-08-30T02:14:00.205Z,14.34
2022-08-30T02:16:48.717Z,14.30
2022-08-30T02:19:38.554Z,14.71
2022-08-30T02:22:26.990Z,14.68
2022-08-30T02:25:20.469Z,14.59
2022-08-30T02:28:09.795Z,14.07
2022-08-30T02:30:59.647Z,14.38
2022-08-30T02:33:48.722Z,15.04
2022-08-30T02:36:37.278Z,15.49
2022-08-30T02:39:25.991Z,16.09
2022-08-30T02:42:14.429Z,16.08
2022-08-30T02:45:02.951Z,15.26
2022-08-30T02:47:56.631Z,15.27
2022-08-30T02:50:46.972Z,14.75
2022-08-30T02:53:35.404Z,15.37
2022-08-30T02:56:25.248Z,15.82
2022-08-30T02:59:13.669Z,16.27
2022-08-30T03:02:03.276Z,16.44
2022-08-30T03:04:53.318Z,16.63
2022-08-30T03:07:41.854Z,16.57
2022-08-30T03:10:30.718Z,16.41
2022-08-30T03:13:19.107Z,16.16
2022-08-30T03:16:07.723Z,16.39
2022-08-30T03:18:56.571Z,16.61
2022-08-30T03:21:46.497Z,16.54
2022-08-30T03:24:35.457Z,15.86
2022-08-30T03:27:23.819Z,15.44
2022-08-30T03:30:13.214Z,14.91
2022-08-30T03:33:02.267Z,14.41
2022-08-30T03:35:52.013Z,14.27
2022-08-30T03:38:41.854Z,14.27
2022-08-30T03:41:32.455Z,14.35
2022-08-30T03:44:20.951Z,14.62
2022-08-30T03:47:10.086Z,14.29
2022-08-30T03:49:58.535Z,14.12
2022-08-30T03:52:46.921Z,13.82
2022-08-30T03:55:36.849Z,14.13
2022-08-30T03:58:25.686Z,14.14
2022-08-30T04:01:14.091Z,14.09
2022-08-30T04:04:02.951Z,14.48
2022-08-30T04:06:52.619Z,14.18
2022-08-30T04:09:41.959Z,14.52
2022-08-30T04:12:31.839Z,14.40
2022-08-30T04:15:21.146Z,14.28
2022-08-30T04:18:12.066Z,14.72
2022-08-30T04:21:00.769Z,14.19
2022-08-30T04:23:49.159Z,14.52
2022-08-30T04:26:37.503Z,15.00
2022-08-30T04:29:27.402Z,15.17
2022-08-30T04:32:17.956Z,15.61
2022-08-30T04:35:09.531Z,15.81
2022-08-30T04:37:58.022Z,15.86
2022-08-30T04:40:49.263Z,16.40
2022-08-30T04:43:37.624Z,16.68
2022-08-30T04:46:27.497Z,16.48
2022-08-30T04:49:18.269Z,16.71
2022-08-30T04:52:08.970Z,16.77
2022-08-30T04:54:57.928Z,16.46
2022-08-30T04:57:46.262Z,16.34
2022-08-30T05:00:35.010Z,15.85
2022-08-30T05:03:24.879Z,15.29
2022-08-30T05:06:13.774Z,15.52
2022-08-30T05:09:02.317Z,14.65
2022-08-30T05:11:52.906Z,15.06
2022-08-30T05:14:41.229Z,15.63
2022-08-30T05:17:29.626Z,15.25
2022-08-30T05:20:19.424Z,15.00
2022-08-30T05:23:08.056Z,15.34
2022-08-30T05:25:59.125Z,15.45
2022-08-30T05:28:47.923Z,15.43
2022-08-30T05:31:38.550Z,15.25
2022-08-30T05:34:27.187Z,15.86
2022-08-30T05:37:19.886Z,15.90
2022-08-30T05:40:11.139Z,16.10
2022-08-30T05:43:00.375Z,16.29
2022-08-30T05:45:48.670Z,16.54
2022-08-30T05:48:37.622Z,16.97
2022-08-30T05:51:28.867Z,16.78
2022-08-30T05:54:21.250Z,16.72
2022-08-30T05:57:09.724Z,17.04
2022-08-30T05:59:58.059Z,17.26
2022-08-30T06:02:47.703Z,17.20
2022-08-30T06:05:38.332Z,17.62
2022-08-30T06:08:27.379Z,17.99
2022-08-30T06:11:19.446Z,18.25
2022-08-30T06:14:08.298Z,18.11
2022-08-30T06:16:57.662Z,18.39
2022-08-30T06:19:46.066Z,18.78
2022-08-30T06:22:35.084Z,18.84
2022-08-30T06:25:23.536Z,18.99
2022-08-30T06:28:13.645Z,18.88
2022-08-30T06:31:02.063Z,18.84
2022-08-30T06:33:51.222Z,19.02
2022-08-30T06:36:40.323Z,19.22
2022-08-30T06:39:28.756Z,19.23
2022-08-30T06:42:19.666Z,19.04
2022-08-30T06:45:10.925Z,19.40
2022-08-30T06:48:00.405Z,19.71
2022-08-30T06:50:54.899Z,19.81
2022-08-30T06:53:43.288Z,20.07
2022-08-30T06:56:32.230Z,20.29
2022-08-30T06:59:20.785Z,20.09
2022-08-30T07:02:10.898Z,20.48
2022-08-30T07:04:59.338Z,20.60
2022-08-30T07:07:47.666Z,20.63
2022-08-30T07:10:39.368Z,21.01
2022-08-30T07:13:29.174Z,21.02
2022-08-30T07:16:17.595Z,20.71
2022-08-30T07:19:08.106Z,21.34
2022-08-30T07:22:09.535Z,21.14
2022-08-30T07:24:57.921Z,20.73
2022-08-30T07:27:46.722Z,20.90
2022-08-30T07:30:36.541Z,21.04
2022-08-30T07:33:24.983Z,21.29
2022-08-30T07:36:15.507Z,21.24
2022-08-30T07:39:04.110Z,21.58
2022-08-30T07:41:52.586Z,21.67
2022-08-30T07:44:41.015Z,21.89
2022-08-30T07:47:29.429Z,21.61
2022-08-30T07:50:17.961Z,21.51
2022-08-30T07:53:11.279Z,22.15
2022-08-30T07:55:59.855Z,22.50
2022-08-30T07:58:48.914Z,22.92
2022-08-30T08:01:37.394Z,22.73
2022-08-30T08:04:25.967Z,23.02
2022-08-30T08:07:14.317Z,23.11
2022-08-30T08:10:05.225Z,23.44
2022-08-30T08:12:53.560Z,23.63
2022-08-30T08:15:43.483Z,24.02
2022-08-30T08:18:32.872Z,23.39
2022-08-30T08:21:23.577Z,23.71
2022-08-30T08:24:12.588Z,23.82
2022-08-30T08:27:04.404Z,23.00
2022-08-30T08:29:56.872Z,23.54
2022-08-30T08:32:46.950Z,23.81
2022-08-30T08:35:37.398Z,23.55
2022-08-30T08:38:28.791Z,23.32
2022-08-30T08:41:41.064Z,23.54
2022-08-30T08:44:54.421Z,22.58
2022-08-30T08:48:01.440Z,23.38
2022-08-30T08:51:19.331Z,22.57
2022-08-30T08:54:16.537Z,23.19
2022-08-30T08:57:13.871Z,23.45
2022-08-30T09:00:16.511Z,23.63
2022-08-30T09:03:09.392Z,24.16
2022-08-30T09:05:59.317Z,23.63
2022-08-30T09:08:47.592Z,23.63
2022-08-30T09:11:38.292Z,23.26
2022-08-30T09:14:30.977Z,23.48
2022-08-30T09:17:22.098Z,22.64
2022-08-30T09:20:10.488Z,23.12
2022-08-30T09:23:00.273Z,22.34
2022-08-30T09:25:52.737Z,22.94
2022-08-30T09:28:49.319Z,22.81
2022-08-30T09:31:49.023Z,22.14
2022-08-30T09:34:38.806Z,22.82
2022-08-30T09:37:31.972Z,23.37
2022-08-30T09:40:27.280Z,22.47
2022-08-30T09:43:22.792Z,22.86
2022-08-30T09:46:16.227Z,22.26
2022-08-30T09:49:07.441Z,22.54
2022-08-30T09:52:10.415Z,22.47
2022-08-30T09:55:14.404Z,22.90
2022-08-30T09:58:10.776Z,23.44
2022-08-30T10:01:10.501Z,24.00
2022-08-30T10:04:07.225Z,23.77
2022-08-30T10:07:02.143Z,23.09
2022-08-30T10:09:58.266Z,23.77
2022-08-30T10:13:02.545Z,24.34
2022-08-30T10:15:56.485Z,24.48
2022-08-30T10:18:53.103Z,23.78
2022-08-30T10:21:47.752Z,24.13
2022-08-30T10:24:44.110Z,25.12
2022-08-30T10:27:39.740Z,25.40
2022-08-30T10:30:31.794Z,24.06
2022-08-30T10:33:31.946Z,23.38
2022-08-30T10:36:24.871Z,24.26
2022-08-30T10:39:20.041Z,23.63
2022-08-30T10:42:14.230Z,24.53
2022-08-30T10:45:07.007Z,24.31
2022-08-30T10:48:03.990Z,24.71
2022-08-30T10:50:57.539Z,24.55
2022-08-30T10:53:49.531Z,23.93
2022-08-30T10:56:43.056Z,24.04
2022-08-30T10:59:34.810Z,23.96
2022-08-30T11:02:58.784Z,24.16
2022-08-30T11:06:01.377Z,23.71
2022-08-30T11:09:19.285Z,22.77
2022-08-30T11:12:33.203Z,22.85
2022-08-30T11:15:32.298Z,23.54
2022-08-30T11:18:21.284Z,23.73
2022-08-30T11:21:24.456Z,24.96
2022-08-30T11:24:16.581Z,25.33
2022-08-30T11:27:05.376Z,24.04
2022-08-30T11:29:53.924Z,24.39
2022-08-30T11:33:07.896Z,24.02
2022-08-30T11:35:58.182Z,23.89
2022-08-30T11:39:06.121Z,23.95
2022-08-30T11:42:14.051Z,23.22
2022-08-30T11:45:39.856Z,23.26
2022-08-30T11:48:53.453Z,22.90
2022-08-30T11:52:26.723Z,23.67
2022-08-30T11:55:32.535Z,24.73
2022-08-30T11:58:30.454Z,24.64
2022-08-30T12:01:50.664Z,24.62
2022-08-30T12:04:47.953Z,24.56
2022-08-30T12:07:57.910Z,25.04
2022-08-30T12:10:48.703Z,26.76
2022-08-30T12:13:53.944Z,26.25
2022-08-30T12:17:00.540Z,26.08
2022-08-30T12:19:51.430Z,28.70
2022-08-30T12:22:40.701Z,28.64
2022-08-30T12:25:32.400Z,29.58
2022-08-30T12:28:26.157Z,30.71
2022-08-30T12:31:18.143Z,31.06
2022-08-30T12:34:07.558Z,32.11
2022-08-30T12:37:04.372Z,32.57
2022-08-30T12:40:03.999Z,31.61
2022-08-30T12:42:57.565Z,30.64
2022-08-30T12:45:50.829Z,32.30
2022-08-30T12:48:41.888Z,33.48
2022-08-30T12:51:37.245Z,33.52
2022-08-30T12:54:31.970Z,32.38
2022-08-30T12:57:36.659Z,33.03
2022-08-30T13:00:27.875Z,31.73
2022-08-30T13:03:31.238Z,28.98
2022-08-30T13:06:38.365Z,29.08
2022-08-30T13:09:32.518Z,28.81
2022-08-30T13:12:23.795Z,31.17
2022-08-30T13:15:17.979Z,30.91
2022-08-30T13:18:27.833Z,31.00
2022-08-30T13:21:25.611Z,27.89
2022-08-30T13:24:15.217Z,26.57
2022-08-30T13:27:09.891Z,25.86
2022-08-30T13:29:58.795Z,25.29
2022-08-30T13:32:47.237Z,26.67
2022-08-30T13:35:35.691Z,26.37
2022-08-30T13:38:24.573Z,27.80
2022-08-30T13:41:12.958Z,29.15
2022-08-30T13:44:13.132Z,29.51
2022-08-30T13:50:11.751Z,31.39
2022-08-30T13:53:00.100Z,31.51
2022-08-30T13:55:48.673Z,31.27
2022-08-30T13:58:37.027Z,30.82
2022-08-30T14:01:27.163Z,30.39
2022-08-30T14:04:16.395Z,31.03
2022-08-30T14:07:14.029Z,31.79
2022-08-30T14:13:17.889Z,31.30
2022-08-30T14:19:19.056Z,32.14
2022-08-30T14:22:07.593Z,32.65
2022-08-30T14:24:56.775Z,32.00
2022-08-30T14:27:45.144Z,31.37
2022-08-30T14:30:33.727Z,29.67
2022-08-30T14:33:22.591Z,28.31
2022-08-30T14:36:16.018Z,29.45
2022-08-30T14:39:08.319Z,27.59
2022-08-30T14:41:57.835Z,28.44
2022-08-30T14:44:56.874Z,28.08
2022-08-30T14:47:45.680Z,28.29
2022-08-30T14:50:35.974Z,26.98
2022-08-30T14:53:25.873Z,26.73
2022-08-30T14:56:19.691Z,26.95
2022-08-30T14:59:08.803Z,26.92
2022-08-30T15:01:57.286Z,26.71
2022-08-30T15:04:46.026Z,26.67
2022-08-30T15:07:38.877Z,26.36
2022-08-30T15:10:28.740Z,25.36
2022-08-30T15:13:17.554Z,25.36
2022-08-30T15:16:11.855Z,25.07
2022-08-30T15:19:01.861Z,24.96
2022-08-30T15:21:50.458Z,25.12
2022-08-30T15:24:40.925Z,24.53
2022-08-30T15:27:30.785Z,25.13
2022-08-30T15:30:19.642Z,24.43
2022-08-30T15:33:08.927Z,25.04
2022-08-30T15:36:01.557Z,24.88
2022-08-30T15:38:55.502Z,25.29
2022-08-30T15:41:45.185Z,25.14
2022-08-30T15:44:45.702Z,25.63
2022-08-30T15:47:34.216Z,25.19
2022-08-30T15:50:23.693Z,25.08
2022-08-30T15:53:12.308Z,25.06
2022-08-30T15:56:01.162Z,25.20
2022-08-30T15:58:53.081Z,25.15
2022-08-30T16:01:44.104Z,24.92
2022-08-30T16:04:32.812Z,24.46
2022-08-30T16:07:21.238Z,24.37
2022-08-30T16:10:10.736Z,24.89
2022-08-30T16:13:01.706Z,25.18
2022-08-30T16:15:51.389Z,25.08
2022-08-30T16:18:41.280Z,24.88
2022-08-30T16:21:31.646Z,24.71
2022-08-30T16:24:22.715Z,24.38
2022-08-30T16:27:11.933Z,24.39
2022-08-30T16:30:01.111Z,24.11
2022-08-30T16:32:50.454Z,24.00
2022-08-30T16:35:40.399Z,24.28
2022-08-30T16:38:29.413Z,24.10
2022-08-30T16:41:21.638Z,24.13
2022-08-30T16:44:11.518Z,24.21
2022-08-30T16:47:00.555Z,24.54
2022-08-30T16:49:49.186Z,24.28
2022-08-30T16:52:43.947Z,24.26
2022-08-30T16:55:36.009Z,24.32
2022-08-30T16:58:24.885Z,24.19
2022-08-30T17:01:15.831Z,23.96
2022-08-30T17:04:06.738Z,24.25
2022-08-30T17:06:55.285Z,23.93
2022-08-30T17:09:45.141Z,24.06
2022-08-30T17:12:34.000Z,23.93
2022-08-30T17:15:27.121Z,24.13
2022-08-30T17:18:19.346Z,23.92
2022-08-30T17:21:07.816Z,24.17
2022-08-30T17:23:58.465Z,24.02
2022-08-30T17:26:52.604Z,23.77
2022-08-30T17:29:41.838Z,23.48
2022-08-30T17:32:30.363Z,23.68
2022-08-30T17:35:21.588Z,23.48
2022-08-30T17:38:09.964Z,23.21
2022-08-30T17:41:03.029Z,23.16
2022-08-30T17:43:52.738Z,22.98
2022-08-30T17:46:42.141Z,22.69
2022-08-30T17:49:33.421Z,22.58
2022-08-30T17:52:22.265Z,22.53
2022-08-30T17:55:11.571Z,22.45
2022-08-30T17:58:00.937Z,22.14
2022-08-30T18:00:50.901Z,22.03
2022-08-30T18:03:39.433Z,21.87
2022-08-30T18:06:28.064Z,21.99
2022-08-30T18:09:18.740Z,22.03
2022-08-30T18:12:07.577Z,22.13
2022-08-30T18:14:56.062Z,22.34
2022-08-30T18:17:49.110Z,22.11
2022-08-30T18:20:38.142Z,21.78
2022-08-30T18:23:26.675Z,21.52
2022-08-30T18:26:15.722Z,21.89
2022-08-30T18:29:06.162Z,21.70
2022-08-30T18:31:54.668Z,21.32
2022-08-30T18:34:44.384Z,21.25
2022-08-30T18:37:33.189Z,21.28
2022-08-30T18:40:21.850Z,21.27
2022-08-30T18:43:10.348Z,21.30
2022-08-30T18:45:58.808Z,21.32
2022-08-30T18:48:47.961Z,21.55
2022-08-30T18:51:40.494Z,21.41
2022-08-30T18:54:29.523Z,21.43
2022-08-30T18:57:18.342Z,21.10
2022-08-30T19:00:09.550Z,21.07
2022-08-30T19:02:58.972Z,21.06
2022-08-30T19:05:47.727Z,20.61
2022-08-30T19:08:37.633Z,20.78
2022-08-30T19:11:26.393Z,20.52
2022-08-30T19:14:14.878Z,20.19
2022-08-30T19:17:06.696Z,20.45
2022-08-30T19:19:55.793Z,20.36
2022-08-30T19:23:08.523Z,20.49
2022-08-30T19:25:54.989Z,20.79
2022-08-30T19:28:43.914Z,20.69
2022-08-30T19:31:32.420Z,20.86
2022-08-30T19:34:21.413Z,20.24
2022-08-30T19:40:22.610Z,19.99
2022-08-30T19:43:12.614Z,20.08
2022-08-30T19:46:01.493Z,20.13
2022-08-30T19:48:49.846Z,20.27
2022-08-30T19:51:38.490Z,20.18
2022-08-30T19:54:27.216Z,20.14
2022-08-30T19:57:19.119Z,19.95
2022-08-30T20:00:12.096Z,19.96
2022-08-30T20:03:05.834Z,19.77
2022-08-30T20:05:55.173Z,19.70
2022-08-30T20:08:43.873Z,19.84
2022-08-30T20:11:35.134Z,19.71
2022-08-30T20:14:23.502Z,19.38
2022-08-30T20:17:13.304Z,19.62
2022-08-30T20:20:03.034Z,19.47
2022-08-30T20:22:54.261Z,19.46
2022-08-30T20:25:43.045Z,19.58
2022-08-30T20:28:31.586Z,19.78
2022-08-30T20:31:20.122Z,19.80
2022-08-30T20:34:09.945Z,19.57
2022-08-30T20:36:59.306Z,19.28
2022-08-30T20:39:47.685Z,19.62
2022-08-30T20:42:36.494Z,19.50
2022-08-30T20:45:24.830Z,19.47
2022-08-30T20:48:19.895Z,19.71
2022-08-30T20:51:11.396Z,19.85
2022-08-30T20:53:59.916Z,20.04
2022-08-30T20:56:48.273Z,19.56
2022-08-30T20:59:36.772Z,20.02
2022-08-30T21:02:25.430Z,20.26
2022-08-30T21:05:15.461Z,20.05
2022-08-30T21:08:09.999Z,20.05
2022-08-30T21:10:58.705Z,19.61
2022-08-30T21:13:48.497Z,19.37
2022-08-30T21:16:37.478Z,19.33
2022-08-30T21:19:26.425Z,19.21
2022-08-30T21:22:14.900Z,19.57
2022-08-30T21:25:04.847Z,19.74
2022-08-30T21:27:56.048Z,19.47
2022-08-30T21:30:44.696Z,19.64
2022-08-30T21:33:36.157Z,19.36
2022-08-30T21:36:46.024Z,19.89
2022-08-30T21:39:36.363Z,19.78
2022-08-30T21:42:26.081Z,19.72
2022-08-30T21:45:15.355Z,19.75
2022-08-30T21:48:04.329Z,19.45
2022-08-30T21:50:55.340Z,19.33
2022-08-30T21:53:44.059Z,19.22
2022-08-30T21:56:33.153Z,19.68
2022-08-30T21:59:23.409Z,20.04
2022-08-30T22:02:12.303Z,20.25
2022-08-30T22:05:00.784Z,20.32
2022-08-30T22:07:49.521Z,20.32
2022-08-30T22:10:38.318Z,20.35
2022-08-30T22:13:27.898Z,20.22
2022-08-30T22:16:19.667Z,20.22
2022-08-30T22:19:08.783Z,20.14
2022-08-30T22:22:00.687Z,20.22
2022-08-30T22:24:50.156Z,20.22
2022-08-30T22:27:38.899Z,20.15
2022-08-30T22:30:27.968Z,20.21
2022-08-30T22:33:19.777Z,20.16
2022-08-30T22:36:10.379Z,20.19
2022-08-30T22:39:00.196Z,20.23
2022-08-30T22:41:48.926Z,20.25
2022-08-30T22:44:37.718Z,20.24
2022-08-30T22:47:26.479Z,20.24
2022-08-30T22:50:16.901Z,20.17
2022-08-30T22:53:06.598Z,20.21
2022-08-30T22:55:55.373Z,20.21
2022-08-30T22:58:47.554Z,20.22
2022-08-30T23:01:39.552Z,20.17
2022-08-30T23:04:28.320Z,20.13
2022-08-30T23:07:18.493Z,20.12
2022-08-30T23:10:08.637Z,20.11
2022-08-30T23:12:58.838Z,19.97
2022-08-30T23:15:47.188Z,20.02
2022-08-30T23:18:38.445Z,20.01
2022-08-30T23:21:28.981Z,19.75
2022-08-30T23:24:36.467Z,19.83
2022-08-30T23:27:43.204Z,19.89
2022-08-30T23:30:49.532Z,19.87
2022-08-30T23:33:55.170Z,19.85
2022-08-30T23:37:00.973Z,19.86
2022-08-30T23:40:08.315Z,19.87
2022-08-30T23:43:14.032Z,19.85
2022-08-30T23:46:20.265Z,19.83
2022-08-30T23:49:25.983Z,19.77
2022-08-30T23:52:31.648Z,19.75
2022-08-30T23:55:39.130Z,19.73
2022-08-30T23:58:45.011Z,19.68
